createdAt,value
2017-04-15T00:00:48.707Z,951.82
2017-04-15T00:01:48.787Z,951.78
2017-04-15T00:02:48.684Z,951.83
2017-04-15T00:03:48.673Z,951.8
2017-04-15T00:04:48.663Z,951.79
2017-04-15T00:05:48.650Z,951.79
2017-04-15T00:06:48.640Z,951.78
2017-04-15T00:07:48.770Z,951.78
2017-04-15T00:08:48.618Z,951.8
2017-04-15T00:09:48.606Z,951.8
2017-04-15T00:10:48.595Z,951.82
2017-04-15T00:11:48.585Z,951.74
2017-04-15T00:12:48.572Z,951.8
2017-04-15T00:13:48.560Z,951.75
2017-04-15T00:14:48.551Z,951.77
2017-04-15T00:15:48.541Z,951.74
2017-04-15T00:16:48.527Z,951.7
2017-04-15T00:17:48.519Z,951.71
2017-04-15T00:18:48.506Z,951.67
2017-04-15T00:19:48.494Z,951.67
2017-04-15T00:20:48.484Z,951.67
2017-04-15T00:21:48.472Z,951.69
2017-04-15T00:22:48.495Z,951.67
2017-04-15T00:23:48.449Z,951.61
2017-04-15T00:24:48.450Z,951.62
2017-04-15T00:25:48.429Z,951.61
2017-04-15T00:26:48.416Z,951.58
2017-04-15T00:27:48.406Z,951.6
2017-04-15T00:28:48.394Z,951.59
2017-04-15T00:29:48.384Z,951.55
2017-04-15T00:30:48.374Z,951.56
2017-04-15T00:31:48.361Z,951.54
2017-04-15T00:32:48.350Z,951.56
2017-04-15T00:33:48.340Z,951.52
2017-04-15T00:34:48.326Z,951.51
2017-04-15T00:35:48.315Z,951.54
2017-04-15T00:36:48.304Z,951.54
2017-04-15T00:37:48.295Z,951.53
2017-04-15T00:38:48.324Z,951.5
2017-04-15T00:39:48.271Z,951.54
2017-04-15T00:40:48.264Z,951.53
2017-04-15T00:41:48.249Z,951.51
2017-04-15T00:42:48.237Z,951.53
2017-04-15T00:43:48.226Z,951.49
2017-04-15T00:44:48.221Z,951.5
2017-04-15T00:45:48.204Z,951.5
2017-04-15T00:46:48.192Z,951.5
2017-04-15T00:47:48.182Z,951.41
2017-04-15T00:48:48.171Z,951.42
2017-04-15T00:49:48.158Z,951.45
2017-04-15T00:50:48.150Z,951.43
2017-04-15T00:51:48.138Z,951.42
2017-04-15T00:52:48.126Z,951.39
2017-04-15T00:53:48.131Z,951.42
2017-04-15T00:54:48.103Z,951.4
2017-04-15T00:55:48.092Z,951.4
2017-04-15T00:56:48.088Z,951.38
2017-04-15T00:57:48.070Z,951.39
2017-04-15T00:58:48.057Z,951.38
2017-04-15T00:59:48.045Z,951.36
2017-04-15T01:00:48.034Z,951.36
2017-04-15T01:01:48.022Z,951.41
2017-04-15T01:02:48.015Z,951.36
2017-04-15T01:03:48.000Z,951.39
2017-04-15T01:04:47.986Z,951.43
2017-04-15T01:05:47.987Z,951.37
2017-04-15T01:06:47.966Z,951.38
2017-04-15T01:07:47.954Z,951.42
2017-04-15T01:08:48.065Z,951.37
2017-04-15T01:09:47.932Z,951.39
2017-04-15T01:10:47.921Z,951.37
2017-04-15T01:11:48.224Z,951.4
2017-04-15T01:12:47.897Z,951.4
2017-04-15T01:13:47.886Z,951.35
2017-04-15T01:14:47.960Z,951.34
2017-04-15T01:15:47.861Z,951.33
2017-04-15T01:16:47.852Z,951.35
2017-04-15T01:17:47.975Z,951.36
2017-04-15T01:18:47.836Z,951.33
2017-04-15T01:19:47.817Z,951.32
2017-04-15T01:20:47.955Z,951.32
2017-04-15T01:21:47.794Z,951.31
2017-04-15T01:22:47.783Z,951.31
2017-04-15T01:23:47.772Z,951.31
2017-04-15T01:24:47.761Z,951.26
2017-04-15T01:25:47.748Z,951.27
2017-04-15T01:26:47.787Z,951.27
2017-04-15T01:27:47.726Z,951.29
2017-04-15T01:28:47.715Z,951.31
2017-04-15T01:29:47.708Z,951.28
2017-04-15T01:30:47.691Z,951.29
2017-04-15T01:31:47.680Z,951.3
2017-04-15T01:32:47.785Z,951.25
2017-04-15T01:33:47.657Z,951.26
2017-04-15T01:34:47.644Z,951.24
2017-04-15T01:35:47.744Z,951.27
2017-04-15T01:36:47.621Z,951.26
2017-04-15T01:37:47.612Z,951.24
2017-04-15T01:38:47.727Z,951.24
2017-04-15T01:39:47.588Z,951.27
2017-04-15T01:40:47.575Z,951.24
2017-04-15T01:41:47.699Z,951.22
2017-04-15T01:42:47.553Z,951.21
2017-04-15T01:43:47.541Z,951.21
2017-04-15T01:44:47.648Z,951.21
2017-04-15T01:45:47.517Z,951.19
2017-04-15T01:46:47.507Z,951.16
2017-04-15T01:47:47.635Z,951.17
2017-04-15T01:48:47.484Z,951.15
2017-04-15T01:49:47.472Z,951.13
2017-04-15T01:50:47.604Z,951.16
2017-04-15T01:51:47.448Z,951.17
2017-04-15T01:52:47.436Z,951.17
2017-04-15T01:53:47.527Z,951.15
2017-04-15T01:54:47.414Z,951.16
2017-04-15T01:55:47.401Z,951.13
2017-04-15T01:56:47.486Z,951.14
2017-04-15T01:57:47.380Z,951.11
2017-04-15T01:58:47.367Z,951.1
2017-04-15T01:59:47.356Z,951.07
2017-04-15T02:00:47.345Z,951.06
2017-04-15T02:01:47.333Z,951.06
2017-04-15T02:02:47.321Z,951.07
2017-04-15T02:03:47.309Z,951.06
2017-04-15T02:04:47.298Z,951.05
2017-04-15T02:05:47.286Z,951.03
2017-04-15T02:06:47.275Z,951.04
2017-04-15T02:07:47.264Z,951.03
2017-04-15T02:08:47.252Z,951.02
2017-04-15T02:09:47.240Z,951.02
2017-04-15T02:10:47.228Z,950.96
2017-04-15T02:11:47.218Z,950.98
2017-04-15T02:12:47.205Z,950.96
2017-04-15T02:13:47.193Z,950.93
2017-04-15T02:14:47.183Z,950.94
2017-04-15T02:15:47.171Z,950.92
2017-04-15T02:16:47.158Z,950.89
2017-04-15T02:17:47.147Z,950.89
2017-04-15T02:18:47.136Z,950.93
2017-04-15T02:19:47.125Z,950.94
2017-04-15T02:20:47.114Z,950.94
2017-04-15T02:21:47.102Z,950.9
2017-04-15T02:22:47.090Z,950.89
2017-04-15T02:23:47.079Z,950.91
2017-04-15T02:24:47.068Z,950.88
2017-04-15T02:25:47.058Z,950.86
2017-04-15T02:26:47.045Z,950.87
2017-04-15T02:27:47.033Z,950.86
2017-04-15T02:28:47.022Z,950.86
2017-04-15T02:29:47.010Z,950.83
2017-04-15T02:30:46.998Z,950.81
2017-04-15T02:31:46.988Z,950.84
2017-04-15T02:32:46.976Z,950.8
2017-04-15T02:33:46.967Z,950.81
2017-04-15T02:34:46.953Z,950.8
2017-04-15T02:35:46.941Z,950.8
2017-04-15T02:36:46.930Z,950.81
2017-04-15T02:37:46.919Z,950.82
2017-04-15T02:38:46.908Z,950.81
2017-04-15T02:39:46.895Z,950.79
2017-04-15T02:40:46.884Z,950.8
2017-04-15T02:41:46.874Z,950.83
2017-04-15T02:42:46.864Z,950.81
2017-04-15T02:43:46.850Z,950.78
2017-04-15T02:44:46.837Z,950.78
2017-04-15T02:45:46.828Z,950.76
2017-04-15T02:46:46.815Z,950.78
2017-04-15T02:47:46.804Z,950.76
2017-04-15T02:48:46.794Z,950.74
2017-04-15T02:49:46.782Z,950.72
2017-04-15T02:50:46.770Z,950.72
2017-04-15T02:51:46.759Z,950.72
2017-04-15T02:52:46.749Z,950.73
2017-04-15T02:53:46.736Z,950.71
2017-04-15T02:54:46.724Z,950.69
2017-04-15T02:55:46.711Z,950.66
2017-04-15T02:56:46.701Z,950.68
2017-04-15T02:57:46.690Z,950.67
2017-04-15T02:58:46.679Z,950.63
2017-04-15T02:59:46.667Z,950.67
2017-04-15T03:00:46.655Z,950.66
2017-04-15T03:01:46.644Z,950.63
2017-04-15T03:02:46.633Z,950.67
2017-04-15T03:03:46.622Z,950.62
2017-04-15T03:04:46.609Z,950.59
2017-04-15T03:05:46.599Z,950.61
2017-04-15T03:06:46.588Z,950.6
2017-04-15T03:07:46.575Z,950.58
2017-04-15T03:08:46.569Z,950.58
2017-04-15T03:09:46.554Z,950.56
2017-04-15T03:10:46.542Z,950.57
2017-04-15T03:11:46.530Z,950.52
2017-04-15T03:12:46.520Z,950.54
2017-04-15T03:13:46.509Z,950.51
2017-04-15T03:14:46.497Z,950.49
2017-04-15T03:15:46.483Z,950.52
2017-04-15T03:16:46.474Z,950.46
2017-04-15T03:17:46.463Z,950.44
2017-04-15T03:18:46.450Z,950.41
2017-04-15T03:19:46.439Z,950.41
2017-04-15T03:20:46.429Z,950.4
2017-04-15T03:21:46.418Z,950.41
2017-04-15T03:22:46.404Z,950.35
2017-04-15T03:23:46.394Z,950.36
2017-04-15T03:24:46.383Z,950.38
2017-04-15T03:25:46.373Z,950.33
2017-04-15T03:26:46.360Z,950.31
2017-04-15T03:27:46.349Z,950.3
2017-04-15T03:28:46.337Z,950.27
2017-04-15T03:29:46.325Z,950.24
2017-04-15T03:30:46.314Z,950.24
2017-04-15T03:31:46.302Z,950.23
2017-04-15T03:32:46.293Z,950.23
2017-04-15T03:33:46.280Z,950.2
2017-04-15T03:34:46.269Z,950.23
2017-04-15T03:35:46.259Z,950.24
2017-04-15T03:36:46.246Z,950.23
2017-04-15T03:37:46.235Z,950.2
2017-04-15T03:38:46.224Z,950.21
2017-04-15T03:39:46.212Z,950.21
2017-04-15T03:40:46.201Z,950.19
2017-04-15T03:41:46.190Z,950.21
2017-04-15T03:42:46.179Z,950.18
2017-04-15T03:43:46.168Z,950.17
2017-04-15T03:44:46.156Z,950.15
2017-04-15T03:45:46.144Z,950.14
2017-04-15T03:46:46.132Z,950.16
2017-04-15T03:47:46.122Z,950.15
2017-04-15T03:48:46.110Z,950.15
2017-04-15T03:49:46.100Z,950.1
2017-04-15T03:50:46.087Z,950.11
2017-04-15T03:51:46.075Z,950.09
2017-04-15T03:52:46.065Z,950.08
2017-04-15T03:53:46.054Z,950.15
2017-04-15T03:54:46.043Z,950.09
2017-04-15T03:55:46.030Z,950.12
2017-04-15T03:56:46.020Z,950.08
2017-04-15T03:57:46.008Z,950.08
2017-04-15T03:58:45.998Z,950.12
2017-04-15T03:59:45.986Z,950.04
2017-04-15T04:00:45.974Z,950.07
2017-04-15T04:01:45.964Z,950.04
2017-04-15T04:02:45.958Z,950.06
2017-04-15T04:03:45.941Z,950.04
2017-04-15T04:04:45.929Z,950.05
2017-04-15T04:05:45.918Z,950.07
2017-04-15T04:06:45.907Z,950.02
2017-04-15T04:07:45.899Z,950.02
2017-04-15T04:08:45.885Z,949.99
2017-04-15T04:09:45.872Z,949.98
2017-04-15T04:10:45.860Z,949.97
2017-04-15T04:11:45.850Z,949.97
2017-04-15T04:12:45.840Z,949.96
2017-04-15T04:13:45.851Z,949.97
2017-04-15T04:14:45.815Z,949.95
2017-04-15T04:15:45.804Z,949.95
2017-04-15T04:16:45.802Z,949.92
2017-04-15T04:17:45.781Z,949.91
2017-04-15T04:18:45.777Z,949.9
2017-04-15T04:19:45.760Z,949.9
2017-04-15T04:20:45.748Z,949.89
2017-04-15T04:21:45.735Z,949.89
2017-04-15T04:22:45.724Z,949.87
2017-04-15T04:23:45.712Z,949.92
2017-04-15T04:24:45.701Z,949.92
2017-04-15T04:25:45.690Z,949.88
2017-04-15T04:26:45.679Z,949.9
2017-04-15T04:27:45.669Z,949.92
2017-04-15T04:28:45.656Z,949.9
2017-04-15T04:29:45.644Z,949.92
2017-04-15T04:30:45.635Z,949.87
2017-04-15T04:31:45.621Z,949.85
2017-04-15T04:32:45.610Z,949.85
2017-04-15T04:33:45.599Z,949.85
2017-04-15T04:34:45.587Z,949.87
2017-04-15T04:35:45.575Z,949.86
2017-04-15T04:36:45.604Z,949.81
2017-04-15T04:37:45.671Z,949.84
2017-04-15T04:38:45.698Z,949.8
2017-04-15T04:39:45.646Z,949.84
2017-04-15T04:40:45.518Z,949.87
2017-04-15T04:41:45.507Z,949.83
2017-04-15T04:42:45.495Z,949.87
2017-04-15T04:43:45.483Z,949.86
2017-04-15T04:44:45.474Z,949.86
2017-04-15T04:45:45.544Z,949.91
2017-04-15T04:46:45.506Z,949.87
2017-04-15T04:47:45.464Z,949.88
2017-04-15T04:48:45.523Z,949.91
2017-04-15T04:49:45.420Z,949.89
2017-04-15T04:50:45.411Z,949.94
2017-04-15T04:51:45.504Z,949.9
2017-04-15T04:52:45.481Z,949.89
2017-04-15T04:53:45.371Z,949.91
2017-04-15T04:54:45.358Z,949.95
2017-04-15T04:55:45.346Z,949.93
2017-04-15T04:56:45.336Z,949.98
2017-04-15T04:57:45.324Z,949.96
2017-04-15T04:58:45.313Z,949.94
2017-04-15T04:59:45.378Z,949.93
2017-04-15T05:00:45.400Z,949.97
2017-04-15T05:01:45.418Z,949.9
2017-04-15T05:02:45.311Z,949.94
2017-04-15T05:03:45.392Z,949.93
2017-04-15T05:04:45.343Z,949.96
2017-04-15T05:05:45.234Z,949.97
2017-04-15T05:06:45.221Z,949.99
2017-04-15T05:07:45.209Z,949.99
2017-04-15T05:08:45.197Z,949.99
2017-04-15T05:09:45.256Z,949.98
2017-04-15T05:10:45.318Z,949.97
2017-04-15T05:11:45.255Z,950
2017-04-15T05:12:45.155Z,949.96
2017-04-15T05:13:45.148Z,949.97
2017-04-15T05:14:45.135Z,949.99
2017-04-15T05:15:45.118Z,950
2017-04-15T05:16:45.108Z,950
2017-04-15T05:17:45.283Z,950.02
2017-04-15T05:18:45.181Z,950.04
2017-04-15T05:19:45.169Z,950.02
2017-04-15T05:20:45.147Z,949.99
2017-04-15T05:21:45.050Z,950.05
2017-04-15T05:22:45.040Z,950.01
2017-04-15T05:23:45.028Z,949.99
2017-04-15T05:24:45.017Z,950.02
2017-04-15T05:25:45.007Z,949.95
2017-04-15T05:26:44.994Z,949.93
2017-04-15T05:27:44.983Z,949.94
2017-04-15T05:28:45.060Z,949.92
2017-04-15T05:29:45.060Z,949.95
2017-04-15T05:30:44.975Z,949.95
2017-04-15T05:31:44.942Z,949.93
2017-04-15T05:32:45.032Z,949.89
2017-04-15T05:33:44.920Z,949.91
2017-04-15T05:34:44.908Z,949.96
2017-04-15T05:35:44.898Z,949.95
2017-04-15T05:36:44.888Z,950
2017-04-15T05:37:44.875Z,950.01
2017-04-15T05:38:44.866Z,949.99
2017-04-15T05:39:44.904Z,950.06
2017-04-15T05:40:44.966Z,950.04
2017-04-15T05:41:44.992Z,950.06
2017-04-15T05:42:44.883Z,950.01
2017-04-15T05:43:44.811Z,950.04
2017-04-15T05:44:44.800Z,950.01
2017-04-15T05:45:44.790Z,950.04
2017-04-15T05:46:44.781Z,950.02
2017-04-15T05:47:44.769Z,950.04
2017-04-15T05:48:44.758Z,949.99
2017-04-15T05:49:44.748Z,950.06
2017-04-15T05:50:44.739Z,950.04
2017-04-15T05:51:44.727Z,950.05
2017-04-15T05:52:44.716Z,950.05
2017-04-15T05:53:44.706Z,950.06
2017-04-15T05:54:44.695Z,950.02
2017-04-15T05:55:44.685Z,950.07
2017-04-15T05:56:44.674Z,950.14
2017-04-15T05:57:44.663Z,950.11
2017-04-15T05:58:44.654Z,950.1
2017-04-15T05:59:44.643Z,950.11
2017-04-15T06:00:44.631Z,950.08
2017-04-15T06:01:44.643Z,950.06
2017-04-15T06:02:44.612Z,950.05
2017-04-15T06:03:44.603Z,950.05
2017-04-15T06:04:44.592Z,950.13
2017-04-15T06:05:44.582Z,950.1
2017-04-15T06:06:44.572Z,950.13
2017-04-15T06:07:44.562Z,950.07
2017-04-15T06:08:44.551Z,950.11
2017-04-15T06:09:44.543Z,950.09
2017-04-15T06:10:44.533Z,950.11
2017-04-15T06:11:44.522Z,950.08
2017-04-15T06:12:44.512Z,950.03
2017-04-15T06:13:44.503Z,950
2017-04-15T06:14:44.493Z,949.95
2017-04-15T06:15:44.483Z,949.98
2017-04-15T06:16:44.472Z,949.97
2017-04-15T06:17:44.461Z,949.94
2017-04-15T06:18:44.453Z,949.94
2017-04-15T06:19:44.444Z,949.92
2017-04-15T06:20:44.436Z,949.94
2017-04-15T06:21:44.425Z,949.95
2017-04-15T06:22:44.415Z,949.98
2017-04-15T06:23:44.406Z,949.96
2017-04-15T06:24:44.399Z,949.97
2017-04-15T06:25:44.386Z,949.97
2017-04-15T06:26:44.378Z,950.01
2017-04-15T06:27:44.367Z,949.98
2017-04-15T06:28:44.358Z,950.04
2017-04-15T06:29:44.349Z,950.01
2017-04-15T06:30:44.340Z,950.05
2017-04-15T06:31:44.330Z,950.03
2017-04-15T06:32:44.321Z,950.04
2017-04-15T06:33:44.311Z,950.02
2017-04-15T06:34:44.301Z,950.01
2017-04-15T06:35:44.292Z,950.03
2017-04-15T06:36:44.283Z,950.05
2017-04-15T06:37:44.274Z,950.02
2017-04-15T06:38:44.265Z,950.05
2017-04-15T06:39:44.255Z,950.04
2017-04-15T06:40:44.245Z,950.02
2017-04-15T06:41:44.237Z,950.04
2017-04-15T06:42:44.229Z,949.97
2017-04-15T06:43:44.219Z,949.98
2017-04-15T06:44:44.210Z,950.04
2017-04-15T06:45:44.200Z,950.08
2017-04-15T06:46:44.192Z,950.08
2017-04-15T06:47:44.183Z,950.1
2017-04-15T06:48:44.176Z,950.09
2017-04-15T06:49:44.166Z,950.09
2017-04-15T06:50:44.160Z,950.11
2017-04-15T06:51:44.148Z,950.13
2017-04-15T06:52:44.141Z,950.15
2017-04-15T06:53:44.132Z,950.14
2017-04-15T06:54:44.122Z,950.2
2017-04-15T06:55:44.114Z,950.2
2017-04-15T06:56:44.107Z,950.22
2017-04-15T06:57:44.100Z,950.13
2017-04-15T06:58:44.092Z,950.11
2017-04-15T06:59:44.084Z,950.12
2017-04-15T07:00:44.077Z,950.07
2017-04-15T07:01:44.068Z,950.08
2017-04-15T07:02:44.063Z,950.11
2017-04-15T07:03:44.059Z,950.12
2017-04-15T07:04:44.046Z,950.02
2017-04-15T07:05:44.038Z,950.07
2017-04-15T07:06:44.031Z,950.06
2017-04-15T07:07:44.025Z,950.08
2017-04-15T07:08:44.017Z,950.17
2017-04-15T07:09:44.010Z,950.06
2017-04-15T07:10:44.003Z,950.06
2017-04-15T07:11:43.998Z,950.12
2017-04-15T07:12:43.989Z,950.17
2017-04-15T07:13:43.982Z,950.4
2017-04-15T07:14:43.974Z,950.37
2017-04-15T07:15:43.968Z,950.36
2017-04-15T07:16:43.962Z,950.38
2017-04-15T07:17:43.953Z,950.35
2017-04-15T07:18:43.948Z,950.24
2017-04-15T07:19:43.941Z,950.2
2017-04-15T07:20:43.934Z,950.14
2017-04-15T07:21:43.928Z,950.21
2017-04-15T07:22:43.921Z,950.15
2017-04-15T07:23:43.914Z,950.15
2017-04-15T07:24:43.906Z,950.2
2017-04-15T07:25:43.901Z,950.21
2017-04-15T07:26:43.895Z,950.31
2017-04-15T07:27:43.889Z,950.29
2017-04-15T07:28:43.880Z,950.26
2017-04-15T07:29:43.874Z,950.26
2017-04-15T07:30:43.867Z,950.25
2017-04-15T07:31:43.859Z,950.24
2017-04-15T07:32:43.857Z,950.21
2017-04-15T07:33:43.848Z,950.26
2017-04-15T07:34:43.841Z,950.22
2017-04-15T07:35:43.834Z,950.18
2017-04-15T07:36:43.828Z,950.16
2017-04-15T07:37:43.821Z,950.16
2017-04-15T07:38:43.814Z,950.23
2017-04-15T07:39:43.809Z,950.25
2017-04-15T07:40:43.802Z,950.26
2017-04-15T07:41:43.794Z,950.24
2017-04-15T07:42:43.789Z,950.25
2017-04-15T07:43:43.782Z,950.19
2017-04-15T07:44:43.777Z,950.26
2017-04-15T07:45:43.775Z,950.24
2017-04-15T07:46:43.762Z,950.21
2017-04-15T07:47:43.757Z,950.29
2017-04-15T07:48:43.751Z,950.3
2017-04-15T07:49:43.742Z,950.27
2017-04-15T07:50:43.737Z,950.25
2017-04-15T07:51:43.731Z,950.29
2017-04-15T07:52:43.724Z,950.31
2017-04-15T07:53:43.718Z,950.29
2017-04-15T07:54:43.712Z,950.29
2017-04-15T07:55:43.705Z,950.24
2017-04-15T07:56:43.697Z,950.26
2017-04-15T07:57:43.693Z,950.2
2017-04-15T07:58:43.685Z,950.22
2017-04-15T07:59:43.679Z,950.19
2017-04-15T08:00:43.673Z,950.2
2017-04-15T08:01:43.668Z,950.17
2017-04-15T08:02:43.662Z,950.27
2017-04-15T08:03:43.653Z,950.24
2017-04-15T08:04:43.648Z,950.2
2017-04-15T08:05:43.641Z,950.3
2017-04-15T08:06:43.634Z,950.31
2017-04-15T08:07:43.627Z,950.33
2017-04-15T08:08:43.621Z,950.31
2017-04-15T08:09:43.614Z,950.31
2017-04-15T08:10:43.608Z,950.38
2017-04-15T08:11:43.599Z,950.39
2017-04-15T08:12:43.594Z,950.41
2017-04-15T08:13:43.588Z,950.37
2017-04-15T08:14:43.580Z,950.47
2017-04-15T08:15:43.574Z,950.41
2017-04-15T08:16:43.567Z,950.4
2017-04-15T08:17:43.561Z,950.45
2017-04-15T08:18:43.554Z,950.5
2017-04-15T08:19:43.548Z,950.49
2017-04-15T08:20:43.542Z,950.47
2017-04-15T08:21:43.536Z,950.55
2017-04-15T08:22:43.529Z,950.54
2017-04-15T08:23:43.523Z,950.54
2017-04-15T08:24:43.516Z,950.56
2017-04-15T08:25:43.509Z,950.53
2017-04-15T08:26:43.503Z,950.53
2017-04-15T08:27:43.498Z,950.52
2017-04-15T08:28:43.493Z,950.52
2017-04-15T08:29:43.485Z,950.55
2017-04-15T08:30:43.479Z,950.51
2017-04-15T08:31:43.472Z,950.53
2017-04-15T08:32:43.474Z,950.52
2017-04-15T08:33:43.460Z,950.51
2017-04-15T08:34:43.454Z,950.56
2017-04-15T08:35:43.449Z,950.57
2017-04-15T08:36:43.440Z,950.46
2017-04-15T08:37:43.436Z,950.5
2017-04-15T08:38:43.430Z,950.51
2017-04-15T08:39:43.424Z,950.49
2017-04-15T08:40:43.418Z,950.5
2017-04-15T08:41:43.411Z,950.44
2017-04-15T08:42:43.406Z,950.51
2017-04-15T08:43:43.400Z,950.45
2017-04-15T08:44:43.394Z,950.58
2017-04-15T08:45:43.390Z,950.56
2017-04-15T08:46:43.383Z,950.49
2017-04-15T08:47:43.378Z,950.55
2017-04-15T08:48:43.370Z,950.45
2017-04-15T08:49:43.365Z,950.42
2017-04-15T08:50:43.359Z,950.4
2017-04-15T08:51:43.352Z,950.47
2017-04-15T08:52:43.346Z,950.46
2017-04-15T08:53:43.339Z,950.44
2017-04-15T08:54:43.334Z,950.46
2017-04-15T08:55:43.330Z,950.43
2017-04-15T08:56:43.322Z,950.46
2017-04-15T08:57:43.316Z,950.42
2017-04-15T08:58:43.311Z,950.5
2017-04-15T08:59:43.304Z,950.41
2017-04-15T09:00:43.298Z,950.42
2017-04-15T09:01:43.294Z,950.39
2017-04-15T09:02:43.288Z,950.41
2017-04-15T09:03:43.285Z,950.4
2017-04-15T09:04:43.276Z,950.45
2017-04-15T09:05:43.272Z,950.47
2017-04-15T09:06:43.266Z,950.52
2017-04-15T09:07:43.261Z,950.45
2017-04-15T09:08:43.257Z,950.41
2017-04-15T09:09:43.250Z,950.39
2017-04-15T09:10:43.245Z,950.4
2017-04-15T09:11:43.241Z,950.39
2017-04-15T09:12:43.234Z,950.41
2017-04-15T09:13:43.229Z,950.5
2017-04-15T09:14:43.224Z,950.42
2017-04-15T09:15:43.220Z,950.41
2017-04-15T09:16:43.213Z,950.4
2017-04-15T09:17:43.208Z,950.4
2017-04-15T09:18:43.202Z,950.44
2017-04-15T09:19:43.197Z,950.34
2017-04-15T09:20:43.191Z,950.3
2017-04-15T09:21:43.186Z,950.29
2017-04-15T09:22:43.182Z,950.31
2017-04-15T09:23:43.177Z,950.29
2017-04-15T09:24:43.170Z,950.32
2017-04-15T09:25:43.166Z,950.31
2017-04-15T09:26:43.159Z,950.33
2017-04-15T09:27:43.154Z,950.39
2017-04-15T09:28:43.149Z,950.35
2017-04-15T09:29:43.143Z,950.33
2017-04-15T09:30:43.138Z,950.28
2017-04-15T09:31:43.132Z,950.29
2017-04-15T09:32:43.127Z,950.32
2017-04-15T09:33:43.122Z,950.3
2017-04-15T09:34:43.116Z,950.3
2017-04-15T09:35:43.111Z,950.33
2017-04-15T09:36:43.107Z,950.27
2017-04-15T09:37:43.101Z,950.33
2017-04-15T09:38:43.095Z,950.3
2017-04-15T09:39:43.091Z,950.33
2017-04-15T09:40:43.085Z,950.34
2017-04-15T09:41:43.080Z,950.3
2017-04-15T09:42:43.074Z,950.21
2017-04-15T09:43:43.070Z,950.28
2017-04-15T09:44:43.064Z,950.24
2017-04-15T09:45:43.059Z,950.2
2017-04-15T09:46:43.053Z,950.22
2017-04-15T09:47:43.049Z,950.19
2017-04-15T09:48:43.044Z,950.15
2017-04-15T09:49:43.038Z,950.16
2017-04-15T09:50:43.032Z,950.07
2017-04-15T09:51:43.029Z,950.06
2017-04-15T09:52:43.023Z,950.06
2017-04-15T09:53:43.017Z,950.07
2017-04-15T09:54:43.013Z,950.08
2017-04-15T09:55:43.007Z,950.03
2017-04-15T09:56:43.002Z,950.08
2017-04-15T09:57:42.997Z,950.09
2017-04-15T09:58:42.992Z,950.09
2017-04-15T09:59:42.988Z,950.04
2017-04-15T10:00:42.981Z,950.11
2017-04-15T10:01:42.977Z,950.14
2017-04-15T10:02:42.973Z,950.2
2017-04-15T10:03:42.968Z,950.05
2017-04-15T10:04:42.961Z,950.12
2017-04-15T10:05:42.956Z,950.17
2017-04-15T10:06:42.952Z,950.11
2017-04-15T10:07:42.947Z,950.22
2017-04-15T10:08:42.942Z,950.19
2017-04-15T10:09:42.937Z,950.22
2017-04-15T10:10:42.934Z,950.08
2017-04-15T10:11:42.927Z,950.17
2017-04-15T10:12:42.921Z,950.16
2017-04-15T10:13:42.920Z,950.13
2017-04-15T10:14:42.911Z,950.11
2017-04-15T10:15:42.908Z,950.1
2017-04-15T10:16:42.903Z,950.09
2017-04-15T10:17:42.898Z,950.07
2017-04-15T10:18:42.894Z,950.14
2017-04-15T10:19:42.889Z,950.2
2017-04-15T10:20:42.884Z,950.14
2017-04-15T10:21:42.879Z,950.16
2017-04-15T10:22:42.873Z,950.16
2017-04-15T10:23:42.870Z,950.12
2017-04-15T10:24:42.865Z,950.08
2017-04-15T10:25:42.858Z,950.07
2017-04-15T10:26:42.853Z,950.03
2017-04-15T10:27:42.846Z,950.02
2017-04-15T10:28:42.842Z,950.03
2017-04-15T10:29:42.835Z,950.01
2017-04-15T10:30:42.830Z,950.03
2017-04-15T10:31:42.824Z,950
2017-04-15T10:32:42.820Z,949.99
2017-04-15T10:33:42.813Z,950.07
2017-04-15T10:34:42.809Z,949.99
2017-04-15T10:35:42.802Z,949.97
2017-04-15T10:36:42.811Z,950
2017-04-15T10:37:42.790Z,949.95
2017-04-15T10:38:42.785Z,950.02
2017-04-15T10:39:42.779Z,949.95
2017-04-15T10:40:42.773Z,949.89
2017-04-15T10:41:42.774Z,949.92
2017-04-15T10:42:42.763Z,949.92
2017-04-15T10:43:42.758Z,949.92
2017-04-15T10:44:42.751Z,949.97
2017-04-15T10:45:42.745Z,949.99
2017-04-15T10:46:42.741Z,949.91
2017-04-15T10:47:42.734Z,949.93
2017-04-15T10:48:42.729Z,949.88
2017-04-15T10:49:42.723Z,949.9
2017-04-15T10:50:42.718Z,949.83
2017-04-15T10:51:42.711Z,949.88
2017-04-15T10:52:42.707Z,949.9
2017-04-15T10:53:42.701Z,949.81
2017-04-15T10:54:42.696Z,949.86
2017-04-15T10:55:42.690Z,949.86
2017-04-15T10:56:42.686Z,949.84
2017-04-15T10:57:42.681Z,949.87
2017-04-15T10:58:42.676Z,949.85
2017-04-15T10:59:42.669Z,949.88
2017-04-15T11:00:42.665Z,949.83
2017-04-15T11:01:42.661Z,949.82
2017-04-15T11:02:42.654Z,949.84
2017-04-15T11:03:42.650Z,949.81
2017-04-15T11:04:42.644Z,949.83
2017-04-15T11:05:42.640Z,949.83
2017-04-15T11:06:42.634Z,949.86
2017-04-15T11:07:42.629Z,949.94
2017-04-15T11:08:42.623Z,949.87
2017-04-15T11:09:42.619Z,949.9
2017-04-15T11:10:42.613Z,949.88
2017-04-15T11:11:42.607Z,949.93
2017-04-15T11:12:42.602Z,949.94
2017-04-15T11:13:42.596Z,949.94
2017-04-15T11:14:42.590Z,949.94
2017-04-15T11:15:42.587Z,949.92
2017-04-15T11:16:42.582Z,949.97
2017-04-15T11:17:42.573Z,949.94
2017-04-15T11:18:42.570Z,949.91
2017-04-15T11:19:42.563Z,949.99
2017-04-15T11:20:42.559Z,949.9
2017-04-15T11:21:42.551Z,949.88
2017-04-15T11:22:42.547Z,949.96
2017-04-15T11:23:42.541Z,950.02
2017-04-15T11:24:42.534Z,949.93
2017-04-15T11:25:42.528Z,949.95
2017-04-15T11:26:42.522Z,949.98
2017-04-15T11:27:42.517Z,949.92
2017-04-15T11:28:42.510Z,949.93
2017-04-15T11:29:42.504Z,949.96
2017-04-15T11:30:42.497Z,949.91
2017-04-15T11:31:42.491Z,949.93
2017-04-15T11:32:42.486Z,949.93
2017-04-15T11:33:42.478Z,949.98
2017-04-15T11:34:42.473Z,949.83
2017-04-15T11:35:42.465Z,949.93
2017-04-15T11:36:42.458Z,949.91
2017-04-15T11:37:42.453Z,949.92
2017-04-15T11:38:42.449Z,949.89
2017-04-15T11:39:42.439Z,949.94
2017-04-15T11:40:42.432Z,949.92
2017-04-15T11:41:42.425Z,949.92
2017-04-15T11:42:42.419Z,949.95
2017-04-15T11:43:42.411Z,949.88
2017-04-15T11:44:42.405Z,949.91
2017-04-15T11:45:42.397Z,949.91
2017-04-15T11:46:42.389Z,949.86
2017-04-15T11:47:42.383Z,949.93
2017-04-15T11:48:42.376Z,949.87
2017-04-15T11:49:42.369Z,949.87
2017-04-15T11:50:42.361Z,949.89
2017-04-15T11:51:42.355Z,949.89
2017-04-15T11:52:42.348Z,949.88
2017-04-15T11:53:42.342Z,949.91
2017-04-15T11:54:42.335Z,949.93
2017-04-15T11:55:42.328Z,949.97
2017-04-15T11:56:42.320Z,949.88
2017-04-15T11:57:42.313Z,949.95
2017-04-15T11:58:42.306Z,949.89
2017-04-15T11:59:42.299Z,949.88
2017-04-15T12:00:42.292Z,949.93
2017-04-15T12:01:42.284Z,949.87
2017-04-15T12:02:42.278Z,949.85
2017-04-15T12:03:42.271Z,949.79
2017-04-15T12:04:42.265Z,949.83
2017-04-15T12:05:42.256Z,949.76
2017-04-15T12:06:42.250Z,949.74
2017-04-15T12:07:42.244Z,949.86
2017-04-15T12:08:42.236Z,949.8
2017-04-15T12:09:42.229Z,949.71
2017-04-15T12:10:42.224Z,949.8
2017-04-15T12:11:42.217Z,949.77
2017-04-15T12:12:42.210Z,949.75
2017-04-15T12:13:42.203Z,949.75
2017-04-15T12:14:42.197Z,949.76
2017-04-15T12:15:42.189Z,949.76
2017-04-15T12:16:42.182Z,949.77
2017-04-15T12:17:42.176Z,949.72
2017-04-15T12:18:42.171Z,949.74
2017-04-15T12:19:42.163Z,949.69
2017-04-15T12:20:42.157Z,949.69
2017-04-15T12:21:42.151Z,949.65
2017-04-15T12:22:42.144Z,949.66
2017-04-15T12:23:42.135Z,949.62
2017-04-15T12:24:42.131Z,949.67
2017-04-15T12:25:42.123Z,949.61
2017-04-15T12:26:42.115Z,949.6
2017-04-15T12:27:42.109Z,949.69
2017-04-15T12:28:42.102Z,949.63
2017-04-15T12:29:42.096Z,949.68
2017-04-15T12:30:42.088Z,949.65
2017-04-15T12:31:42.080Z,949.64